sensor_id;sensor_type;location;lat;lon;timestamp;temperature;humidity
51982;DHT22;37998;53.416;6.730;2023-08-20T00:00:44;17.50;99.90
51982;DHT22;37998;53.416;6.730;2023-08-20T00:03:13;17.40;99.90
51982;DHT22;37998;53.416;6.730;2023-08-20T00:05:42;17.40;99.90
51982;DHT22;37998;53.416;6.730;2023-08-20T00:08:08;17.30;99.90
51982;DHT22;37998;53.416;6.730;2023-08-20T00:10:34;17.30;99.90
51982;DHT22;37998;53.416;6.730;2023-08-20T00:13:00;17.30;99.90
51982;DHT22;37998;53.416;6.730;2023-08-20T00:15:26;17.20;99.90
51982;DHT22;37998;53.416;6.730;2023-08-20T00:17:54;17.20;99.90
51982;DHT22;37998;53.416;6.730;2023-08-20T00:20:21;17.10;99.90
51982;DHT22;37998;53.416;6.730;2023-08-20T00:22:48;17.10;99.90
51982;DHT22;37998;53.416;6.730;2023-08-20T00:25:16;17.20;99.90
51982;DHT22;37998;53.416;6.730;2023-08-20T00:27:42;17.20;99.90
51982;DHT22;37998;53.416;6.730;2023-08-20T00:30:12;17.20;99.90
51982;DHT22;37998;53.416;6.730;2023-08-20T00:32:38;17.20;99.90
51982;DHT22;37998;53.416;6.730;2023-08-20T00:35:04;17.10;99.90
51982;DHT22;37998;53.416;6.730;2023-08-20T00:37:31;17.10;99.90
51982;DHT22;37998;53.416;6.730;2023-08-20T00:39:57;17.00;99.90
51982;DHT22;37998;53.416;6.730;2023-08-20T00:42:24;17.00;99.90
51982;DHT22;37998;53.416;6.730;2023-08-20T00:44:53;17.00;99.90
51982;DHT22;37998;53.416;6.730;2023-08-20T00:47:20;17.00;99.90
51982;DHT22;37998;53.416;6.730;2023-08-20T00:49:47;17.00;99.90
51982;DHT22;37998;53.416;6.730;2023-08-20T00:52:16;16.90;99.90
51982;DHT22;37998;53.416;6.730;2023-08-20T00:54:44;16.90;99.90
51982;DHT22;37998;53.416;6.730;2023-08-20T00:57:13;16.80;99.90
51982;DHT22;37998;53.416;6.730;2023-08-20T00:59:41;16.80;99.90
51982;DHT22;37998;53.416;6.730;2023-08-20T01:02:08;16.80;99.90
51982;DHT22;37998;53.416;6.730;2023-08-20T01:04:35;16.80;99.90
51982;DHT22;37998;53.416;6.730;2023-08-20T01:09:50;16.80;99.90
51982;DHT22;37998;53.416;6.730;2023-08-20T01:12:23;16.80;99.90
51982;DHT22;37998;53.416;6.730;2023-08-20T01:14:50;16.70;99.90
51982;DHT22;37998;53.416;6.730;2023-08-20T01:17:16;16.70;99.90
51982;DHT22;37998;53.416;6.730;2023-08-20T01:19:42;16.70;99.90
51982;DHT22;37998;53.416;6.730;2023-08-20T01:30:21;16.60;99.90
51982;DHT22;37998;53.416;6.730;2023-08-20T01:32:50;16.70;99.90
51982;DHT22;37998;53.416;6.730;2023-08-20T01:35:18;16.60;99.90
51982;DHT22;37998;53.416;6.730;2023-08-20T01:37:44;16.70;99.90
51982;DHT22;37998;53.416;6.730;2023-08-20T01:40:10;16.60;99.90
51982;DHT22;37998;53.416;6.730;2023-08-20T01:42:38;16.60;99.90
51982;DHT22;37998;53.416;6.730;2023-08-20T01:45:05;16.60;99.90
51982;DHT22;37998;53.416;6.730;2023-08-20T01:47:32;16.60;99.90
51982;DHT22;37998;53.416;6.730;2023-08-20T01:50:00;16.60;99.90
51982;DHT22;37998;53.416;6.730;2023-08-20T01:52:26;16.60;99.90
51982;DHT22;37998;53.416;6.730;2023-08-20T01:54:52;16.60;99.90
51982;DHT22;37998;53.416;6.730;2023-08-20T01:57:21;16.50;99.90
51982;DHT22;37998;53.416;6.730;2023-08-20T01:59:47;16.50;99.90
51982;DHT22;37998;53.416;6.730;2023-08-20T02:02:13;16.50;99.90
51982;DHT22;37998;53.416;6.730;2023-08-20T02:04:39;16.50;99.90
51982;DHT22;37998;53.416;6.730;2023-08-20T02:07:05;16.40;99.90
51982;DHT22;37998;53.416;6.730;2023-08-20T02:09:32;16.40;99.90
51982;DHT22;37998;53.416;6.730;2023-08-20T02:11:58;16.50;99.90
51982;DHT22;37998;53.416;6.730;2023-08-20T02:14:24;16.50;99.90
51982;DHT22;37998;53.416;6.730;2023-08-20T02:16:50;16.50;99.90
51982;DHT22;37998;53.416;6.730;2023-08-20T02:19:16;16.50;99.90
51982;DHT22;37998;53.416;6.730;2023-08-20T02:21:45;16.60;99.90
51982;DHT22;37998;53.416;6.730;2023-08-20T02:24:10;16.50;99.90
51982;DHT22;37998;53.416;6.730;2023-08-20T02:26:39;16.60;99.90
51982;DHT22;37998;53.416;6.730;2023-08-20T02:29:07;16.60;99.90
51982;DHT22;37998;53.416;6.730;2023-08-20T02:31:36;16.60;99.90
51982;DHT22;37998;53.416;6.730;2023-08-20T02:34:01;16.60;99.90
51982;DHT22;37998;53.416;6.730;2023-08-20T02:36:28;16.50;99.90
51982;DHT22;37998;53.416;6.730;2023-08-20T02:38:54;16.50;99.90
51982;DHT22;37998;53.416;6.730;2023-08-20T02:41:20;16.40;99.90
51982;DHT22;37998;53.416;6.730;2023-08-20T02:43:47;16.40;99.90
51982;DHT22;37998;53.416;6.730;2023-08-20T02:46:13;16.40;99.90
51982;DHT22;37998;53.416;6.730;2023-08-20T02:48:39;16.30;99.90
51982;DHT22;37998;53.416;6.730;2023-08-20T02:51:05;16.30;99.90
51982;DHT22;37998;53.416;6.730;2023-08-20T02:53:31;16.20;99.90
51982;DHT22;37998;53.416;6.730;2023-08-20T02:55:57;16.20;99.90
51982;DHT22;37998;53.416;6.730;2023-08-20T02:58:23;16.20;99.90
51982;DHT22;37998;53.416;6.730;2023-08-20T03:00:49;16.10;99.90
51982;DHT22;37998;53.416;6.730;2023-08-20T03:03:15;16.10;99.90
51982;DHT22;37998;53.416;6.730;2023-08-20T03:05:43;16.10;99.90
51982;DHT22;37998;53.416;6.730;2023-08-20T03:08:09;16.00;99.90
51982;DHT22;37998;53.416;6.730;2023-08-20T03:10:35;16.00;99.90
51982;DHT22;37998;53.416;6.730;2023-08-20T03:13:02;16.00;99.90
51982;DHT22;37998;53.416;6.730;2023-08-20T03:15:29;16.00;99.90
51982;DHT22;37998;53.416;6.730;2023-08-20T03:17:55;16.00;99.90
51982;DHT22;37998;53.416;6.730;2023-08-20T03:20:21;16.00;99.90
51982;DHT22;37998;53.416;6.730;2023-08-20T03:22:47;16.00;99.90
51982;DHT22;37998;53.416;6.730;2023-08-20T03:25:13;16.00;99.90
51982;DHT22;37998;53.416;6.730;2023-08-20T03:27:39;16.00;99.90
51982;DHT22;37998;53.416;6.730;2023-08-20T03:30:06;15.90;99.90
51982;DHT22;37998;53.416;6.730;2023-08-20T03:32:32;16.00;99.90
51982;DHT22;37998;53.416;6.730;2023-08-20T03:34:58;15.90;99.90
51982;DHT22;37998;53.416;6.730;2023-08-20T03:37:28;15.90;99.90
51982;DHT22;37998;53.416;6.730;2023-08-20T03:39:54;15.90;99.90
51982;DHT22;37998;53.416;6.730;2023-08-20T03:42:20;15.90;99.90
51982;DHT22;37998;53.416;6.730;2023-08-20T03:44:47;15.90;99.90
51982;DHT22;37998;53.416;6.730;2023-08-20T03:47:13;15.90;99.90
51982;DHT22;37998;53.416;6.730;2023-08-20T03:49:40;15.90;99.90
51982;DHT22;37998;53.416;6.730;2023-08-20T03:52:06;15.90;99.90
51982;DHT22;37998;53.416;6.730;2023-08-20T03:54:33;15.90;99.90
51982;DHT22;37998;53.416;6.730;2023-08-20T03:57:00;15.90;99.90
51982;DHT22;37998;53.416;6.730;2023-08-20T03:59:26;15.80;99.90
51982;DHT22;37998;53.416;6.730;2023-08-20T04:01:52;15.80;99.90
51982;DHT22;37998;53.416;6.730;2023-08-20T04:04:18;15.80;99.90
51982;DHT22;37998;53.416;6.730;2023-08-20T04:06:43;15.80;99.90
51982;DHT22;37998;53.416;6.730;2023-08-20T04:09:09;15.80;99.90
51982;DHT22;37998;53.416;6.730;2023-08-20T04:11:36;15.80;99.90
51982;DHT22;37998;53.416;6.730;2023-08-20T04:14:02;15.80;99.90
51982;DHT22;37998;53.416;6.730;2023-08-20T04:16:30;15.80;99.90
51982;DHT22;37998;53.416;6.730;2023-08-20T04:18:56;15.80;99.90
51982;DHT22;37998;53.416;6.730;2023-08-20T04:21:22;15.80;99.90
51982;DHT22;37998;53.416;6.730;2023-08-20T04:23:49;15.80;99.90
51982;DHT22;37998;53.416;6.730;2023-08-20T04:26:15;15.80;99.90
51982;DHT22;37998;53.416;6.730;2023-08-20T04:28:41;15.70;99.90
51982;DHT22;37998;53.416;6.730;2023-08-20T04:31:07;15.60;99.90
51982;DHT22;37998;53.416;6.730;2023-08-20T04:34:02;15.60;99.90
51982;DHT22;37998;53.416;6.730;2023-08-20T04:36:45;15.60;99.90
51982;DHT22;37998;53.416;6.730;2023-08-20T04:39:11;15.50;99.90
51982;DHT22;37998;53.416;6.730;2023-08-20T04:41:41;15.50;99.90
51982;DHT22;37998;53.416;6.730;2023-08-20T04:44:12;15.50;99.90
51982;DHT22;37998;53.416;6.730;2023-08-20T04:46:38;15.50;99.90
51982;DHT22;37998;53.416;6.730;2023-08-20T04:49:04;15.40;99.90
51982;DHT22;37998;53.416;6.730;2023-08-20T04:51:30;15.40;99.90
51982;DHT22;37998;53.416;6.730;2023-08-20T04:53:56;15.40;99.90
51982;DHT22;37998;53.416;6.730;2023-08-20T04:56:23;15.50;99.90
51982;DHT22;37998;53.416;6.730;2023-08-20T04:58:48;15.50;99.90
51982;DHT22;37998;53.416;6.730;2023-08-20T05:01:30;15.50;99.90
51982;DHT22;37998;53.416;6.730;2023-08-20T05:03:56;15.50;99.90
51982;DHT22;37998;53.416;6.730;2023-08-20T05:06:22;15.50;99.90
51982;DHT22;37998;53.416;6.730;2023-08-20T05:08:48;15.50;99.90
51982;DHT22;37998;53.416;6.730;2023-08-20T05:11:14;15.50;99.90
51982;DHT22;37998;53.416;6.730;2023-08-20T05:13:41;15.50;99.90
51982;DHT22;37998;53.416;6.730;2023-08-20T05:16:07;15.60;99.90
51982;DHT22;37998;53.416;6.730;2023-08-20T05:18:33;15.60;99.90
51982;DHT22;37998;53.416;6.730;2023-08-20T05:21:00;15.60;99.90
51982;DHT22;37998;53.416;6.730;2023-08-20T05:23:28;15.60;99.90
51982;DHT22;37998;53.416;6.730;2023-08-20T05:25:54;15.70;99.90
51982;DHT22;37998;53.416;6.730;2023-08-20T05:28:20;15.70;99.90
51982;DHT22;37998;53.416;6.730;2023-08-20T05:30:56;15.70;99.90
51982;DHT22;37998;53.416;6.730;2023-08-20T05:33:23;15.80;99.90
51982;DHT22;37998;53.416;6.730;2023-08-20T05:35:49;15.80;99.90
51982;DHT22;37998;53.416;6.730;2023-08-20T05:38:16;15.90;99.90
51982;DHT22;37998;53.416;6.730;2023-08-20T05:40:43;16.00;99.90
51982;DHT22;37998;53.416;6.730;2023-08-20T05:43:09;16.10;99.90
51982;DHT22;37998;53.416;6.730;2023-08-20T05:45:36;16.10;99.90
51982;DHT22;37998;53.416;6.730;2023-08-20T05:48:02;16.20;99.90
51982;DHT22;37998;53.416;6.730;2023-08-20T05:50:28;16.30;99.90
51982;DHT22;37998;53.416;6.730;2023-08-20T05:52:54;16.40;99.90
51982;DHT22;37998;53.416;6.730;2023-08-20T05:55:21;16.50;99.90
51982;DHT22;37998;53.416;6.730;2023-08-20T05:57:47;16.60;99.90
51982;DHT22;37998;53.416;6.730;2023-08-20T06:00:13;16.70;99.90
51982;DHT22;37998;53.416;6.730;2023-08-20T06:02:39;16.70;99.90
51982;DHT22;37998;53.416;6.730;2023-08-20T06:05:05;16.80;99.90
51982;DHT22;37998;53.416;6.730;2023-08-20T06:07:31;17.00;99.90
51982;DHT22;37998;53.416;6.730;2023-08-20T06:09:57;17.00;99.90
51982;DHT22;37998;53.416;6.730;2023-08-20T06:12:24;17.10;99.90
51982;DHT22;37998;53.416;6.730;2023-08-20T06:14:50;17.10;99.90
51982;DHT22;37998;53.416;6.730;2023-08-20T06:17:16;17.20;99.90
51982;DHT22;37998;53.416;6.730;2023-08-20T06:19:42;17.30;99.90
51982;DHT22;37998;53.416;6.730;2023-08-20T06:22:08;17.40;99.90
51982;DHT22;37998;53.416;6.730;2023-08-20T06:24:34;17.40;99.90
51982;DHT22;37998;53.416;6.730;2023-08-20T06:27:00;17.50;99.90
51982;DHT22;37998;53.416;6.730;2023-08-20T06:29:26;17.60;99.90
51982;DHT22;37998;53.416;6.730;2023-08-20T06:31:52;17.70;99.90
51982;DHT22;37998;53.416;6.730;2023-08-20T06:34:18;17.80;99.90
51982;DHT22;37998;53.416;6.730;2023-08-20T06:36:44;17.80;99.90
51982;DHT22;37998;53.416;6.730;2023-08-20T06:39:10;17.90;99.90
51982;DHT22;37998;53.416;6.730;2023-08-20T06:41:36;18.00;99.90
51982;DHT22;37998;53.416;6.730;2023-08-20T06:44:04;18.10;99.90
51982;DHT22;37998;53.416;6.730;2023-08-20T06:46:30;18.10;99.90
51982;DHT22;37998;53.416;6.730;2023-08-20T06:48:56;18.20;99.90
51982;DHT22;37998;53.416;6.730;2023-08-20T06:51:22;18.30;99.90
51982;DHT22;37998;53.416;6.730;2023-08-20T06:53:49;18.40;99.90
51982;DHT22;37998;53.416;6.730;2023-08-20T06:56:15;18.50;99.90
51982;DHT22;37998;53.416;6.730;2023-08-20T06:58:42;18.50;99.90
51982;DHT22;37998;53.416;6.730;2023-08-20T07:01:08;18.60;99.90
51982;DHT22;37998;53.416;6.730;2023-08-20T07:06:01;18.70;99.90
51982;DHT22;37998;53.416;6.730;2023-08-20T07:08:27;18.70;99.90
51982;DHT22;37998;53.416;6.730;2023-08-20T07:10:53;18.80;99.90
51982;DHT22;37998;53.416;6.730;2023-08-20T07:13:19;18.90;99.90
51982;DHT22;37998;53.416;6.730;2023-08-20T07:15:45;19.00;99.90
51982;DHT22;37998;53.416;6.730;2023-08-20T07:18:11;19.10;99.90
51982;DHT22;37998;53.416;6.730;2023-08-20T07:20:39;19.20;99.90
51982;DHT22;37998;53.416;6.730;2023-08-20T07:23:05;19.40;99.90
51982;DHT22;37998;53.416;6.730;2023-08-20T07:25:31;19.50;99.90
51982;DHT22;37998;53.416;6.730;2023-08-20T07:27:57;19.70;99.90
51982;DHT22;37998;53.416;6.730;2023-08-20T07:30:25;19.80;99.90
51982;DHT22;37998;53.416;6.730;2023-08-20T07:32:51;20.00;99.90
51982;DHT22;37998;53.416;6.730;2023-08-20T07:35:17;20.10;99.90
51982;DHT22;37998;53.416;6.730;2023-08-20T07:37:43;20.20;99.90
51982;DHT22;37998;53.416;6.730;2023-08-20T07:40:10;20.30;99.90
51982;DHT22;37998;53.416;6.730;2023-08-20T07:42:36;20.30;99.90
51982;DHT22;37998;53.416;6.730;2023-08-20T07:45:02;20.40;99.90
51982;DHT22;37998;53.416;6.730;2023-08-20T07:47:29;20.40;99.90
51982;DHT22;37998;53.416;6.730;2023-08-20T07:49:55;20.50;99.90
51982;DHT22;37998;53.416;6.730;2023-08-20T07:52:21;20.50;99.90
51982;DHT22;37998;53.416;6.730;2023-08-20T07:54:47;20.70;99.90
51982;DHT22;37998;53.416;6.730;2023-08-20T07:57:13;20.80;99.90
51982;DHT22;37998;53.416;6.730;2023-08-20T07:59:39;20.80;99.90
51982;DHT22;37998;53.416;6.730;2023-08-20T08:02:05;20.90;99.90
51982;DHT22;37998;53.416;6.730;2023-08-20T08:04:32;21.00;99.90
51982;DHT22;37998;53.416;6.730;2023-08-20T08:06:58;21.00;99.90
51982;DHT22;37998;53.416;6.730;2023-08-20T08:09:31;21.10;99.90
51982;DHT22;37998;53.416;6.730;2023-08-20T08:11:58;21.20;99.90
51982;DHT22;37998;53.416;6.730;2023-08-20T08:14:24;21.30;99.90
51982;DHT22;37998;53.416;6.730;2023-08-20T08:16:51;21.40;99.90
51982;DHT22;37998;53.416;6.730;2023-08-20T08:19:17;21.50;99.90
51982;DHT22;37998;53.416;6.730;2023-08-20T08:21:44;21.60;99.90
51982;DHT22;37998;53.416;6.730;2023-08-20T08:24:11;21.70;99.90
51982;DHT22;37998;53.416;6.730;2023-08-20T08:26:37;22.10;99.90
51982;DHT22;37998;53.416;6.730;2023-08-20T08:29:04;22.30;99.90
51982;DHT22;37998;53.416;6.730;2023-08-20T08:31:31;22.50;99.90
51982;DHT22;37998;53.416;6.730;2023-08-20T08:33:57;22.70;99.90
51982;DHT22;37998;53.416;6.730;2023-08-20T08:36:23;22.80;99.90
51982;DHT22;37998;53.416;6.730;2023-08-20T08:38:51;22.90;99.90
51982;DHT22;37998;53.416;6.730;2023-08-20T08:41:21;23.00;99.90
51982;DHT22;37998;53.416;6.730;2023-08-20T08:43:48;23.00;99.90
51982;DHT22;37998;53.416;6.730;2023-08-20T08:46:15;22.90;99.90
51982;DHT22;37998;53.416;6.730;2023-08-20T08:48:45;22.90;99.90
51982;DHT22;37998;53.416;6.730;2023-08-20T08:51:13;22.90;99.90
51982;DHT22;37998;53.416;6.730;2023-08-20T08:53:39;22.90;99.90
51982;DHT22;37998;53.416;6.730;2023-08-20T08:56:07;22.80;99.90
51982;DHT22;37998;53.416;6.730;2023-08-20T08:58:33;22.80;99.90
51982;DHT22;37998;53.416;6.730;2023-08-20T09:01:00;22.80;99.90
51982;DHT22;37998;53.416;6.730;2023-08-20T09:03:26;22.80;99.90
51982;DHT22;37998;53.416;6.730;2023-08-20T09:06:00;22.90;99.90
51982;DHT22;37998;53.416;6.730;2023-08-20T09:08:30;22.90;99.90
51982;DHT22;37998;53.416;6.730;2023-08-20T09:10:58;22.90;99.90
51982;DHT22;37998;53.416;6.730;2023-08-20T09:13:37;22.90;99.90
51982;DHT22;37998;53.416;6.730;2023-08-20T09:16:05;23.00;99.90
51982;DHT22;37998;53.416;6.730;2023-08-20T09:18:32;23.00;99.90
51982;DHT22;37998;53.416;6.730;2023-08-20T09:20:58;23.10;99.90
51982;DHT22;37998;53.416;6.730;2023-08-20T09:23:28;23.10;99.90
51982;DHT22;37998;53.416;6.730;2023-08-20T09:25:55;23.30;99.90
51982;DHT22;37998;53.416;6.730;2023-08-20T09:28:21;23.40;99.90
51982;DHT22;37998;53.416;6.730;2023-08-20T09:30:58;23.50;99.90
51982;DHT22;37998;53.416;6.730;2023-08-20T09:33:25;23.60;99.90
51982;DHT22;37998;53.416;6.730;2023-08-20T09:35:51;23.60;99.90
51982;DHT22;37998;53.416;6.730;2023-08-20T09:38:20;23.50;99.90
51982;DHT22;37998;53.416;6.730;2023-08-20T09:40:51;23.60;99.90
51982;DHT22;37998;53.416;6.730;2023-08-20T09:43:19;23.60;99.90
51982;DHT22;37998;53.416;6.730;2023-08-20T09:45:46;23.60;99.90
51982;DHT22;37998;53.416;6.730;2023-08-20T09:48:19;23.70;99.90
51982;DHT22;37998;53.416;6.730;2023-08-20T09:50:49;23.80;99.90
51982;DHT22;37998;53.416;6.730;2023-08-20T09:53:26;23.80;99.90
51982;DHT22;37998;53.416;6.730;2023-08-20T09:55:56;23.90;99.90
51982;DHT22;37998;53.416;6.730;2023-08-20T09:58:26;23.90;99.90
51982;DHT22;37998;53.416;6.730;2023-08-20T10:00:53;24.00;99.90
51982;DHT22;37998;53.416;6.730;2023-08-20T10:03:20;24.00;99.90
51982;DHT22;37998;53.416;6.730;2023-08-20T10:05:49;24.10;99.90
51982;DHT22;37998;53.416;6.730;2023-08-20T10:08:15;24.20;99.90
51982;DHT22;37998;53.416;6.730;2023-08-20T10:10:42;24.20;99.90
51982;DHT22;37998;53.416;6.730;2023-08-20T10:13:08;24.30;99.90
51982;DHT22;37998;53.416;6.730;2023-08-20T10:15:35;24.30;99.90
51982;DHT22;37998;53.416;6.730;2023-08-20T10:18:03;24.40;99.90
51982;DHT22;37998;53.416;6.730;2023-08-20T10:20:30;24.50;99.90
51982;DHT22;37998;53.416;6.730;2023-08-20T10:23:01;24.60;99.90
51982;DHT22;37998;53.416;6.730;2023-08-20T10:25:29;24.60;99.90
51982;DHT22;37998;53.416;6.730;2023-08-20T10:28:12;24.60;99.90
51982;DHT22;37998;53.416;6.730;2023-08-20T10:33:50;24.50;99.90
51982;DHT22;37998;53.416;6.730;2023-08-20T10:36:21;24.60;99.90
51982;DHT22;37998;53.416;6.730;2023-08-20T10:39:05;24.60;99.90
51982;DHT22;37998;53.416;6.730;2023-08-20T10:41:31;24.60;99.90
51982;DHT22;37998;53.416;6.730;2023-08-20T10:44:00;24.60;99.90
51982;DHT22;37998;53.416;6.730;2023-08-20T10:46:28;24.70;99.90
51982;DHT22;37998;53.416;6.730;2023-08-20T10:49:01;24.70;99.90
51982;DHT22;37998;53.416;6.730;2023-08-20T10:51:31;24.80;99.90
51982;DHT22;37998;53.416;6.730;2023-08-20T10:56:46;25.00;99.90
51982;DHT22;37998;53.416;6.730;2023-08-20T10:59:28;25.20;99.90
51982;DHT22;37998;53.416;6.730;2023-08-20T11:01:58;25.20;99.90
51982;DHT22;37998;53.416;6.730;2023-08-20T11:04:30;25.20;99.90
51982;DHT22;37998;53.416;6.730;2023-08-20T11:06:59;25.30;99.90
51982;DHT22;37998;53.416;6.730;2023-08-20T11:09:28;25.30;99.90
51982;DHT22;37998;53.416;6.730;2023-08-20T11:11:55;25.40;99.90
51982;DHT22;37998;53.416;6.730;2023-08-20T11:14:21;25.50;99.90
51982;DHT22;37998;53.416;6.730;2023-08-20T11:16:48;25.50;99.90
51982;DHT22;37998;53.416;6.730;2023-08-20T11:19:15;25.60;99.90
51982;DHT22;37998;53.416;6.730;2023-08-20T11:21:44;25.80;99.90
51982;DHT22;37998;53.416;6.730;2023-08-20T11:24:11;25.80;99.90
51982;DHT22;37998;53.416;6.730;2023-08-20T11:26:41;26.10;99.90
51982;DHT22;37998;53.416;6.730;2023-08-20T11:29:08;26.00;99.60
51982;DHT22;37998;53.416;6.730;2023-08-20T11:31:39;26.10;99.40
51982;DHT22;37998;53.416;6.730;2023-08-20T11:34:06;26.00;99.60
51982;DHT22;37998;53.416;6.730;2023-08-20T11:36:32;25.90;99.80
51982;DHT22;37998;53.416;6.730;2023-08-20T11:38:58;25.90;99.90
51982;DHT22;37998;53.416;6.730;2023-08-20T11:41:25;26.00;99.90
51982;DHT22;37998;53.416;6.730;2023-08-20T11:43:52;26.00;99.90
51982;DHT22;37998;53.416;6.730;2023-08-20T11:46:20;26.00;99.90
51982;DHT22;37998;53.416;6.730;2023-08-20T11:49:07;26.10;99.40
51982;DHT22;37998;53.416;6.730;2023-08-20T11:51:37;26.10;98.40
51982;DHT22;37998;53.416;6.730;2023-08-20T11:54:17;26.30;98.00
51982;DHT22;37998;53.416;6.730;2023-08-20T11:56:47;26.50;97.50
51982;DHT22;37998;53.416;6.730;2023-08-20T11:59:15;26.60;98.00
51982;DHT22;37998;53.416;6.730;2023-08-20T12:01:41;26.50;98.80
51982;DHT22;37998;53.416;6.730;2023-08-20T12:04:08;26.30;98.90
51982;DHT22;37998;53.416;6.730;2023-08-20T12:06:35;26.10;99.30
51982;DHT22;37998;53.416;6.730;2023-08-20T12:09:21;25.80;99.20
51982;DHT22;37998;53.416;6.730;2023-08-20T12:11:51;25.60;99.90
51982;DHT22;37998;53.416;6.730;2023-08-20T12:14:18;25.70;99.90
51982;DHT22;37998;53.416;6.730;2023-08-20T12:16:45;25.50;99.90
51982;DHT22;37998;53.416;6.730;2023-08-20T12:19:12;25.50;99.90
51982;DHT22;37998;53.416;6.730;2023-08-20T12:21:40;25.60;99.90
51982;DHT22;37998;53.416;6.730;2023-08-20T12:24:08;25.60;99.90
51982;DHT22;37998;53.416;6.730;2023-08-20T12:26:34;25.40;99.90
51982;DHT22;37998;53.416;6.730;2023-08-20T12:29:00;25.40;99.90
51982;DHT22;37998;53.416;6.730;2023-08-20T12:31:26;25.40;99.90
51982;DHT22;37998;53.416;6.730;2023-08-20T12:33:52;25.30;99.90
51982;DHT22;37998;53.416;6.730;2023-08-20T12:36:18;25.20;99.90
51982;DHT22;37998;53.416;6.730;2023-08-20T12:38:44;25.00;99.90
51982;DHT22;37998;53.416;6.730;2023-08-20T12:41:10;24.80;99.90
51982;DHT22;37998;53.416;6.730;2023-08-20T12:43:36;24.60;99.90
51982;DHT22;37998;53.416;6.730;2023-08-20T12:46:02;24.40;99.90
51982;DHT22;37998;53.416;6.730;2023-08-20T12:48:29;24.30;99.90
51982;DHT22;37998;53.416;6.730;2023-08-20T12:50:56;24.00;99.90
51982;DHT22;37998;53.416;6.730;2023-08-20T12:53:22;23.90;99.90
51982;DHT22;37998;53.416;6.730;2023-08-20T12:55:48;24.00;99.90
51982;DHT22;37998;53.416;6.730;2023-08-20T12:58:14;24.10;99.90
51982;DHT22;37998;53.416;6.730;2023-08-20T13:00:40;24.30;99.90
51982;DHT22;37998;53.416;6.730;2023-08-20T13:03:06;24.40;99.90
51982;DHT22;37998;53.416;6.730;2023-08-20T13:05:33;24.50;99.90
51982;DHT22;37998;53.416;6.730;2023-08-20T13:07:59;24.50;99.90
51982;DHT22;37998;53.416;6.730;2023-08-20T13:10:26;24.60;99.90
51982;DHT22;37998;53.416;6.730;2023-08-20T13:12:52;24.70;99.90
51982;DHT22;37998;53.416;6.730;2023-08-20T13:15:22;24.60;99.90
51982;DHT22;37998;53.416;6.730;2023-08-20T13:17:49;24.60;99.90
51982;DHT22;37998;53.416;6.730;2023-08-20T13:20:16;24.50;99.90
51982;DHT22;37998;53.416;6.730;2023-08-20T13:22:51;24.30;99.90
51982;DHT22;37998;53.416;6.730;2023-08-20T13:25:17;24.20;99.90
51982;DHT22;37998;53.416;6.730;2023-08-20T13:27:43;24.10;99.90
51982;DHT22;37998;53.416;6.730;2023-08-20T13:30:10;24.10;99.90
51982;DHT22;37998;53.416;6.730;2023-08-20T13:32:37;24.20;99.90
51982;DHT22;37998;53.416;6.730;2023-08-20T13:35:03;24.20;99.90
51982;DHT22;37998;53.416;6.730;2023-08-20T13:37:30;24.30;99.90
51982;DHT22;37998;53.416;6.730;2023-08-20T13:40:00;24.20;99.90
51982;DHT22;37998;53.416;6.730;2023-08-20T13:42:26;24.40;99.90
51982;DHT22;37998;53.416;6.730;2023-08-20T13:44:52;24.20;99.90
51982;DHT22;37998;53.416;6.730;2023-08-20T13:47:19;24.30;99.90
51982;DHT22;37998;53.416;6.730;2023-08-20T13:49:44;24.30;99.90
51982;DHT22;37998;53.416;6.730;2023-08-20T13:52:11;24.30;99.90
51982;DHT22;37998;53.416;6.730;2023-08-20T13:54:37;24.30;99.90
51982;DHT22;37998;53.416;6.730;2023-08-20T13:57:03;24.30;99.90
51982;DHT22;37998;53.416;6.730;2023-08-20T13:59:30;24.20;99.90
51982;DHT22;37998;53.416;6.730;2023-08-20T14:01:57;23.90;99.90
51982;DHT22;37998;53.416;6.730;2023-08-20T14:04:23;23.80;99.90
51982;DHT22;37998;53.416;6.730;2023-08-20T14:06:49;23.90;99.90
51982;DHT22;37998;53.416;6.730;2023-08-20T14:09:15;23.90;99.90
51982;DHT22;37998;53.416;6.730;2023-08-20T14:11:43;23.90;99.90
51982;DHT22;37998;53.416;6.730;2023-08-20T14:14:09;23.80;99.90
51982;DHT22;37998;53.416;6.730;2023-08-20T14:16:35;23.90;99.90
51982;DHT22;37998;53.416;6.730;2023-08-20T14:19:01;24.00;99.90
51982;DHT22;37998;53.416;6.730;2023-08-20T14:21:27;23.90;99.90
51982;DHT22;37998;53.416;6.730;2023-08-20T14:23:53;23.80;99.90
51982;DHT22;37998;53.416;6.730;2023-08-20T14:26:19;23.70;99.90
51982;DHT22;37998;53.416;6.730;2023-08-20T14:28:45;23.80;99.90
51982;DHT22;37998;53.416;6.730;2023-08-20T14:31:11;23.80;99.90
51982;DHT22;37998;53.416;6.730;2023-08-20T14:33:37;23.70;99.90
51982;DHT22;37998;53.416;6.730;2023-08-20T14:36:03;23.70;99.90
51982;DHT22;37998;53.416;6.730;2023-08-20T14:38:30;23.60;99.90
51982;DHT22;37998;53.416;6.730;2023-08-20T14:41:03;23.60;99.90
51982;DHT22;37998;53.416;6.730;2023-08-20T14:43:29;23.50;99.90
51982;DHT22;37998;53.416;6.730;2023-08-20T14:45:55;23.50;99.90
51982;DHT22;37998;53.416;6.730;2023-08-20T14:48:25;23.50;99.90
51982;DHT22;37998;53.416;6.730;2023-08-20T14:50:51;23.50;99.90
51982;DHT22;37998;53.416;6.730;2023-08-20T14:53:18;23.60;99.90
51982;DHT22;37998;53.416;6.730;2023-08-20T14:55:45;23.60;99.90
51982;DHT22;37998;53.416;6.730;2023-08-20T14:58:11;23.70;99.90
51982;DHT22;37998;53.416;6.730;2023-08-20T15:00:37;23.70;99.90
51982;DHT22;37998;53.416;6.730;2023-08-20T15:03:03;23.80;99.90
51982;DHT22;37998;53.416;6.730;2023-08-20T15:05:30;23.80;99.90
51982;DHT22;37998;53.416;6.730;2023-08-20T15:07:56;23.70;99.90
51982;DHT22;37998;53.416;6.730;2023-08-20T15:10:22;23.70;99.90
51982;DHT22;37998;53.416;6.730;2023-08-20T15:12:48;23.60;99.90
51982;DHT22;37998;53.416;6.730;2023-08-20T15:15:14;23.60;99.90
51982;DHT22;37998;53.416;6.730;2023-08-20T15:17:40;23.60;99.90
51982;DHT22;37998;53.416;6.730;2023-08-20T15:20:07;23.50;99.90
51982;DHT22;37998;53.416;6.730;2023-08-20T15:22:36;23.60;99.90
51982;DHT22;37998;53.416;6.730;2023-08-20T15:25:03;23.60;99.90
51982;DHT22;37998;53.416;6.730;2023-08-20T15:27:37;23.50;99.90
51982;DHT22;37998;53.416;6.730;2023-08-20T15:30:04;23.60;99.90
51982;DHT22;37998;53.416;6.730;2023-08-20T15:32:32;23.50;99.90
51982;DHT22;37998;53.416;6.730;2023-08-20T15:34:58;23.40;99.90
51982;DHT22;37998;53.416;6.730;2023-08-20T15:37:24;23.40;99.90
51982;DHT22;37998;53.416;6.730;2023-08-20T15:39:50;23.40;99.90
51982;DHT22;37998;53.416;6.730;2023-08-20T15:42:16;23.40;99.90
51982;DHT22;37998;53.416;6.730;2023-08-20T15:44:43;23.40;99.90
51982;DHT22;37998;53.416;6.730;2023-08-20T15:47:10;23.40;99.90
51982;DHT22;37998;53.416;6.730;2023-08-20T15:49:36;23.30;99.90